createdAt,value
2022-10-24T00:02:13.691Z,65.00
2022-10-24T00:04:47.165Z,64.70
2022-10-24T00:07:20.530Z,64.70
2022-10-24T00:09:53.773Z,65.40
2022-10-24T00:12:27.136Z,64.60
2022-10-24T00:15:00.921Z,64.40
2022-10-24T00:17:36.561Z,64.50
2022-10-24T00:20:12.084Z,64.50
2022-10-24T00:22:45.762Z,64.50
2022-10-24T00:25:19.742Z,64.20
2022-10-24T00:27:53.097Z,64.10
2022-10-24T00:30:26.585Z,64.00
2022-10-24T00:33:01.887Z,64.00
2022-10-24T00:35:35.819Z,63.50
2022-10-24T00:38:09.520Z,63.70
2022-10-24T00:40:44.101Z,63.10
2022-10-24T00:43:20.985Z,63.40
2022-10-24T00:45:57.396Z,63.30
2022-10-24T00:48:37.928Z,63.30
2022-10-24T00:51:25.775Z,63.30
2022-10-24T00:54:04.650Z,63.20
2022-10-24T00:56:42.953Z,63.20
2022-10-24T00:59:18.915Z,63.20
2022-10-24T01:01:52.416Z,63.10
2022-10-24T01:04:27.641Z,62.90
2022-10-24T01:07:18.647Z,62.60
2022-10-24T01:10:18.938Z,62.90
2022-10-24T01:13:03.815Z,62.70
2022-10-24T01:15:46.887Z,62.60
2022-10-24T01:18:29.320Z,62.60
2022-10-24T01:21:24.798Z,62.50
2022-10-24T01:24:41.893Z,62.10
2022-10-24T01:27:49.383Z,62.20
2022-10-24T01:30:25.166Z,62.10
2022-10-24T01:33:06.060Z,62.00
2022-10-24T01:35:48.849Z,61.90
2022-10-24T01:38:30.343Z,61.90
2022-10-24T01:41:09.009Z,61.70
2022-10-24T01:43:50.291Z,61.70
2022-10-24T01:46:32.367Z,61.70
2022-10-24T01:49:15.874Z,61.50
2022-10-24T01:51:55.648Z,61.60
2022-10-24T01:54:33.258Z,61.60
2022-10-24T01:57:06.804Z,61.50
2022-10-24T01:59:45.157Z,61.40
2022-10-24T02:02:26.877Z,61.40
2022-10-24T02:05:06.355Z,61.20
2022-10-24T02:07:44.656Z,61.20
2022-10-24T02:10:25.329Z,61.20
2022-10-24T02:13:07.655Z,61.00
2022-10-24T02:15:47.821Z,61.10
2022-10-24T02:18:23.174Z,60.90
2022-10-24T02:21:09.007Z,60.80
2022-10-24T02:23:53.008Z,60.70
2022-10-24T02:26:35.961Z,60.60
2022-10-24T02:29:18.106Z,60.50
2022-10-24T02:31:55.803Z,60.50
2022-10-24T02:34:35.701Z,60.50
2022-10-24T02:37:13.168Z,60.20
2022-10-24T02:39:49.470Z,60.20
2022-10-24T02:42:25.504Z,60.20
2022-10-24T02:45:00.150Z,60.10
2022-10-24T02:47:34.634Z,60.10
2022-10-24T02:50:11.139Z,60.00
2022-10-24T02:52:45.779Z,59.90
2022-10-24T02:55:21.587Z,59.70
2022-10-24T02:57:55.193Z,59.70
2022-10-24T03:00:30.457Z,59.50
2022-10-24T03:03:07.171Z,59.50
2022-10-24T03:05:42.127Z,59.70
2022-10-24T03:08:15.797Z,59.40
2022-10-24T03:10:49.737Z,59.60
2022-10-24T03:13:23.489Z,59.20
2022-10-24T03:15:57.096Z,59.30
2022-10-24T03:18:30.492Z,59.20
2022-10-24T03:21:05.388Z,59.40
2022-10-24T03:23:38.972Z,59.40
2022-10-24T03:26:16.468Z,59.30
2022-10-24T03:28:49.879Z,59.20
2022-10-24T03:31:24.389Z,59.20
2022-10-24T03:33:58.086Z,59.20
2022-10-24T03:36:33.781Z,59.20
2022-10-24T03:39:07.768Z,59.20
2022-10-24T03:41:41.295Z,59.00
2022-10-24T03:44:14.857Z,59.20
2022-10-24T03:46:48.199Z,59.20
2022-10-24T03:49:21.928Z,59.20
2022-10-24T03:51:57.253Z,59.20
2022-10-24T03:54:31.393Z,59.10
2022-10-24T03:57:05.451Z,59.20
2022-10-24T03:59:39.433Z,59.20
2022-10-24T04:02:14.009Z,59.20
2022-10-24T04:04:53.436Z,59.10
2022-10-24T04:07:29.049Z,59.60
2022-10-24T04:10:03.064Z,58.90
2022-10-24T04:12:36.663Z,59.00
2022-10-24T04:15:11.700Z,59.20
2022-10-24T04:17:45.500Z,59.20
2022-10-24T04:20:20.858Z,59.10
2022-10-24T04:22:56.213Z,59.20
2022-10-24T04:25:31.454Z,58.90
2022-10-24T04:28:06.153Z,59.10
2022-10-24T04:33:16.614Z,58.90
2022-10-24T04:35:51.203Z,58.90
2022-10-24T04:38:27.835Z,59.10
2022-10-24T04:41:07.263Z,58.50
2022-10-24T04:43:43.406Z,58.80
2022-10-24T04:46:17.381Z,58.70
2022-10-24T04:48:51.030Z,58.60
2022-10-24T04:51:27.243Z,58.80
2022-10-24T04:54:02.589Z,58.80
2022-10-24T04:56:36.266Z,58.80
2022-10-24T04:59:09.945Z,58.60
2022-10-24T05:01:43.627Z,58.80
2022-10-24T05:04:17.169Z,58.50
2022-10-24T05:06:50.982Z,58.50
2022-10-24T05:09:25.716Z,58.60
2022-10-24T05:11:59.669Z,58.60
2022-10-24T05:14:33.217Z,58.70
2022-10-24T05:17:06.725Z,58.70
2022-10-24T05:19:40.879Z,58.60
2022-10-24T05:22:14.689Z,58.40
2022-10-24T05:24:49.900Z,58.60
2022-10-24T05:27:24.948Z,58.30
2022-10-24T05:30:03.642Z,58.60
2022-10-24T05:32:39.597Z,58.50
2022-10-24T05:35:14.025Z,58.60
2022-10-24T05:37:47.543Z,58.40
2022-10-24T05:40:23.835Z,58.40
2022-10-24T05:42:57.241Z,58.10
2022-10-24T05:45:30.666Z,58.40
2022-10-24T05:48:05.218Z,58.40
2022-10-24T05:50:38.804Z,58.30
2022-10-24T05:53:15.223Z,58.30
2022-10-24T05:55:49.989Z,58.20
2022-10-24T05:58:24.906Z,58.30
2022-10-24T06:00:58.497Z,58.40
2022-10-24T06:03:33.686Z,58.20
2022-10-24T06:06:08.702Z,58.20
2022-10-24T06:08:42.187Z,58.30
2022-10-24T06:11:17.468Z,58.20
2022-10-24T06:13:53.271Z,58.20
2022-10-24T06:16:37.386Z,58.20
2022-10-24T06:19:10.832Z,58.00
2022-10-24T06:21:44.767Z,58.00
2022-10-24T06:24:19.158Z,58.00
2022-10-24T06:26:54.361Z,58.00
2022-10-24T06:29:27.785Z,57.80
2022-10-24T06:32:08.448Z,57.90
2022-10-24T06:34:41.896Z,57.90
2022-10-24T06:37:15.409Z,57.80
2022-10-24T06:39:48.797Z,57.90
2022-10-24T06:42:23.398Z,57.80
2022-10-24T06:44:56.811Z,57.80
2022-10-24T06:47:30.442Z,57.70
2022-10-24T06:50:04.083Z,57.90
2022-10-24T06:52:38.316Z,57.90
2022-10-24T06:55:12.240Z,57.90
2022-10-24T06:57:47.401Z,57.80
2022-10-24T07:00:21.444Z,57.80
2022-10-24T07:02:54.971Z,57.80
2022-10-24T07:05:29.898Z,57.60
2022-10-24T07:08:03.652Z,57.80
2022-10-24T07:10:37.396Z,57.80
2022-10-24T07:13:12.449Z,57.60
2022-10-24T07:15:45.882Z,57.20
2022-10-24T07:18:19.268Z,57.90
2022-10-24T07:20:52.681Z,58.00
2022-10-24T07:23:26.355Z,58.00
2022-10-24T07:26:04.008Z,57.90
2022-10-24T07:28:40.777Z,58.00
2022-10-24T07:31:18.036Z,57.80
2022-10-24T07:33:52.878Z,57.80
2022-10-24T07:36:30.655Z,57.80
2022-10-24T07:39:04.852Z,57.80
2022-10-24T07:41:41.743Z,57.80
2022-10-24T07:44:17.268Z,57.80
2022-10-24T07:46:50.902Z,57.50
2022-10-24T07:49:24.711Z,57.50
2022-10-24T07:51:58.325Z,57.40
2022-10-24T07:54:36.158Z,57.10
2022-10-24T07:57:10.813Z,56.90
2022-10-24T07:59:45.767Z,57.10
2022-10-24T08:02:19.434Z,56.60
2022-10-24T08:04:52.889Z,57.20
2022-10-24T08:07:27.036Z,56.80
2022-10-24T08:10:00.333Z,56.80
2022-10-24T08:12:33.718Z,57.00
2022-10-24T08:15:09.795Z,56.90
2022-10-24T08:17:43.359Z,57.10
2022-10-24T08:20:18.040Z,56.90
2022-10-24T08:22:51.950Z,55.70
2022-10-24T08:25:25.248Z,57.10
2022-10-24T08:27:59.317Z,56.70
2022-10-24T08:30:35.858Z,56.20
2022-10-24T08:33:09.395Z,57.10
2022-10-24T08:35:45.437Z,56.70
2022-10-24T08:38:18.913Z,56.80
2022-10-24T08:40:52.522Z,56.70
2022-10-24T08:43:29.191Z,56.80
2022-10-24T08:46:25.094Z,56.70
2022-10-24T08:49:08.386Z,56.50
2022-10-24T08:51:48.465Z,57.10
2022-10-24T08:54:27.731Z,56.50
2022-10-24T08:57:02.288Z,56.60
2022-10-24T08:59:38.710Z,56.50
2022-10-24T09:02:22.772Z,56.60
2022-10-24T09:05:01.444Z,56.40
2022-10-24T09:07:35.471Z,56.40
2022-10-24T09:10:20.594Z,56.20
2022-10-24T09:12:56.375Z,56.20
2022-10-24T09:15:34.406Z,56.10
2022-10-24T09:18:22.721Z,56.10
2022-10-24T09:20:57.795Z,56.00
2022-10-24T09:23:38.743Z,56.10
2022-10-24T09:26:24.080Z,54.70
2022-10-24T09:29:00.710Z,55.60
2022-10-24T09:31:38.993Z,56.00
2022-10-24T09:34:15.267Z,56.00
2022-10-24T09:36:54.391Z,56.10
2022-10-24T09:39:35.217Z,55.70
2022-10-24T09:42:26.795Z,56.90
2022-10-24T09:45:02.328Z,55.50
2022-10-24T09:47:40.260Z,55.60
2022-10-24T09:50:24.037Z,55.90
2022-10-24T09:53:04.483Z,55.80
2022-10-24T09:55:47.483Z,55.70
2022-10-24T09:58:33.424Z,55.70
2022-10-24T10:01:20.289Z,56.30
2022-10-24T10:04:09.049Z,56.40
2022-10-24T10:06:53.167Z,56.20
2022-10-24T10:09:32.174Z,56.30
2022-10-24T10:12:29.310Z,56.20
2022-10-24T10:15:19.577Z,56.00
2022-10-24T10:18:02.261Z,56.00
2022-10-24T10:20:42.609Z,56.20
2022-10-24T10:23:28.777Z,55.60
2022-10-24T10:26:25.692Z,55.40
2022-10-24T10:29:03.602Z,56.00
2022-10-24T10:31:44.907Z,55.90
2022-10-24T10:34:30.461Z,55.80
2022-10-24T10:37:33.923Z,55.20
2022-10-24T10:40:41.293Z,55.80
2022-10-24T10:43:35.024Z,56.10
2022-10-24T10:46:22.155Z,56.10
2022-10-24T10:49:12.473Z,56.10
2022-10-24T10:51:53.314Z,55.80
2022-10-24T10:54:58.217Z,55.90
2022-10-24T10:57:44.863Z,55.70
2022-10-24T11:00:32.855Z,55.70
2022-10-24T11:03:35.916Z,55.40
2022-10-24T11:06:42.285Z,55.50
2022-10-24T11:09:31.186Z,55.60
2022-10-24T11:12:21.230Z,55.60
2022-10-24T11:15:11.270Z,55.70
2022-10-24T11:17:52.848Z,55.70
2022-10-24T11:20:32.839Z,55.40
2022-10-24T11:23:18.543Z,55.60
2022-10-24T11:26:01.207Z,55.60
2022-10-24T11:28:43.850Z,55.20
2022-10-24T11:31:25.367Z,55.90
2022-10-24T11:34:09.082Z,55.80
2022-10-24T11:36:53.485Z,56.00
2022-10-24T11:39:42.537Z,55.90
2022-10-24T11:42:30.813Z,55.90
2022-10-24T11:45:15.612Z,55.20
2022-10-24T11:48:06.041Z,55.60
2022-10-24T11:50:48.934Z,55.60
2022-10-24T11:53:46.297Z,55.60
2022-10-24T11:56:31.252Z,55.50
2022-10-24T11:59:24.720Z,55.10
2022-10-24T12:02:49.681Z,54.80
2022-10-24T12:05:54.864Z,55.60
2022-10-24T12:09:05.565Z,55.60
2022-10-24T12:12:04.983Z,55.60
2022-10-24T12:15:03.118Z,55.50
2022-10-24T12:18:06.580Z,55.30
2022-10-24T12:20:44.194Z,55.40
2022-10-24T12:23:27.315Z,54.50
2022-10-24T12:26:09.771Z,55.60
2022-10-24T12:28:47.994Z,55.30
2022-10-24T12:31:28.315Z,55.50
2022-10-24T12:34:48.897Z,55.40
2022-10-24T12:37:39.562Z,55.60
2022-10-24T12:40:52.397Z,55.30
2022-10-24T12:43:37.331Z,56.00
2022-10-24T12:46:54.778Z,56.20
2022-10-24T12:49:29.925Z,56.40
2022-10-24T12:53:07.152Z,56.40
2022-10-24T12:56:20.461Z,57.00
2022-10-24T12:59:17.856Z,57.10
2022-10-24T13:02:22.543Z,57.10
2022-10-24T13:05:24.532Z,57.10
2022-10-24T13:08:21.777Z,57.90
2022-10-24T13:11:22.362Z,57.70
2022-10-24T13:14:21.894Z,57.70
2022-10-24T13:17:09.509Z,58.00
2022-10-24T13:19:43.062Z,57.90
2022-10-24T13:22:31.940Z,57.80
2022-10-24T13:28:39.328Z,57.80
2022-10-24T13:31:56.112Z,58.30
2022-10-24T13:35:52.462Z,58.10
2022-10-24T13:38:28.654Z,57.70
2022-10-24T13:41:02.872Z,57.40
2022-10-24T13:43:48.080Z,57.40
2022-10-24T13:46:33.138Z,57.50
2022-10-24T13:49:10.750Z,57.50
2022-10-24T13:51:50.573Z,56.90
2022-10-24T13:54:30.240Z,56.20
2022-10-24T13:57:07.387Z,56.70
2022-10-24T13:59:43.012Z,56.50
2022-10-24T14:02:32.525Z,56.20
2022-10-24T14:07:58.797Z,56.10
2022-10-24T14:10:34.227Z,56.40
2022-10-24T14:13:22.381Z,56.00
2022-10-24T14:16:03.042Z,55.60
2022-10-24T14:18:39.867Z,55.40
2022-10-24T14:21:22.139Z,55.70
2022-10-24T14:23:58.948Z,55.70
2022-10-24T14:26:32.649Z,55.70
2022-10-24T14:29:06.413Z,55.50
2022-10-24T14:31:41.796Z,55.60
2022-10-24T14:34:25.563Z,54.90
2022-10-24T14:37:05.613Z,55.40
2022-10-24T14:39:40.906Z,55.50
2022-10-24T14:42:20.045Z,55.40
2022-10-24T14:44:58.431Z,55.60
2022-10-24T14:47:39.937Z,55.20
2022-10-24T14:50:35.778Z,55.20
2022-10-24T14:53:27.655Z,55.50
2022-10-24T14:56:03.563Z,55.40
2022-10-24T14:58:38.995Z,55.50
2022-10-24T15:01:21.193Z,54.90
2022-10-24T15:04:01.349Z,55.50
2022-10-24T15:06:41.902Z,55.50
2022-10-24T15:09:20.621Z,55.20
2022-10-24T15:12:03.928Z,55.60
2022-10-24T15:14:47.792Z,55.10
2022-10-24T15:17:32.599Z,55.50
2022-10-24T15:20:18.540Z,55.30
2022-10-24T15:22:57.134Z,56.10
2022-10-24T15:25:36.804Z,56.00
2022-10-24T15:28:39.435Z,56.30
2022-10-24T15:31:14.255Z,56.80
2022-10-24T15:33:48.712Z,56.80
2022-10-24T15:36:30.768Z,56.90
2022-10-24T15:39:08.938Z,57.10
2022-10-24T15:41:43.327Z,57.40
2022-10-24T15:44:20.725Z,57.80
2022-10-24T15:46:55.418Z,58.60
2022-10-24T15:49:31.483Z,58.20
2022-10-24T15:52:14.173Z,58.10
2022-10-24T15:54:48.637Z,58.60
2022-10-24T15:57:22.201Z,58.60
2022-10-24T15:59:57.702Z,58.90
2022-10-24T16:02:32.358Z,58.90
2022-10-24T16:05:07.014Z,59.30
2022-10-24T16:07:42.028Z,60.00
2022-10-24T16:10:22.768Z,59.50
2022-10-24T16:12:56.125Z,59.80
2022-10-24T16:15:36.375Z,59.80
2022-10-24T16:18:10.943Z,60.20
2022-10-24T16:20:44.547Z,60.00
2022-10-24T16:23:19.249Z,60.10
2022-10-24T16:25:52.884Z,60.20
2022-10-24T16:28:28.859Z,60.30
2022-10-24T16:31:02.363Z,60.50
2022-10-24T16:33:36.556Z,60.50
2022-10-24T16:36:10.115Z,60.90
2022-10-24T16:38:46.431Z,61.00
2022-10-24T16:41:22.571Z,61.20
2022-10-24T16:43:57.036Z,61.30
2022-10-24T16:46:30.501Z,61.20
2022-10-24T16:51:41.732Z,61.20
2022-10-24T16:54:20.603Z,61.60
2022-10-24T16:56:54.334Z,61.50
2022-10-24T16:59:29.010Z,61.90
2022-10-24T17:02:03.850Z,62.00
2022-10-24T17:04:37.786Z,62.10
2022-10-24T17:07:11.886Z,62.20
2022-10-24T17:09:46.687Z,62.40
2022-10-24T17:12:20.196Z,62.00
2022-10-24T17:14:53.667Z,62.30
2022-10-24T17:17:27.347Z,62.20
2022-10-24T17:20:01.361Z,62.50
2022-10-24T17:22:35.299Z,62.70
2022-10-24T17:25:21.387Z,62.80
2022-10-24T17:27:56.246Z,63.10
2022-10-24T17:30:30.706Z,62.90
2022-10-24T17:33:04.506Z,62.90
2022-10-24T17:35:46.884Z,62.90
2022-10-24T17:38:38.790Z,63.30
2022-10-24T17:41:25.570Z,63.50
2022-10-24T17:44:00.233Z,63.50
2022-10-24T17:46:34.476Z,63.40
2022-10-24T17:49:10.663Z,63.30
2022-10-24T17:51:47.118Z,63.30
2022-10-24T17:54:21.516Z,63.40
2022-10-24T17:56:56.283Z,63.20
2022-10-24T17:59:29.650Z,63.20
2022-10-24T18:02:03.754Z,63.00
2022-10-24T18:04:38.570Z,62.70
2022-10-24T18:07:11.949Z,62.90
2022-10-24T18:09:45.685Z,62.90
2022-10-24T18:12:20.898Z,63.00
2022-10-24T18:14:54.279Z,62.90
2022-10-24T18:17:27.624Z,62.90
2022-10-24T18:20:01.298Z,62.80
2022-10-24T18:22:38.163Z,63.00
2022-10-24T18:25:18.791Z,63.00
2022-10-24T18:27:57.300Z,63.00
2022-10-24T18:30:32.289Z,62.80
2022-10-24T18:33:05.659Z,62.80
2022-10-24T18:35:39.013Z,62.80
2022-10-24T18:38:12.701Z,62.70
2022-10-24T18:40:46.809Z,62.30
2022-10-24T18:43:22.263Z,62.90
2022-10-24T18:45:57.111Z,62.90
2022-10-24T18:48:31.191Z,63.00
2022-10-24T18:51:05.749Z,63.00
2022-10-24T18:53:43.365Z,63.70
2022-10-24T18:56:20.647Z,63.00
2022-10-24T18:58:58.156Z,62.80
2022-10-24T19:01:45.145Z,63.00
2022-10-24T19:04:23.731Z,63.00
2022-10-24T19:07:01.612Z,62.90
2022-10-24T19:09:35.273Z,63.00
2022-10-24T19:12:10.186Z,63.00
2022-10-24T19:14:45.876Z,63.20
2022-10-24T19:17:19.215Z,63.30
2022-10-24T19:19:54.534Z,63.00
2022-10-24T19:22:29.905Z,63.10
2022-10-24T19:25:03.278Z,63.90
2022-10-24T19:27:36.727Z,63.30
2022-10-24T19:30:14.018Z,63.40
2022-10-24T19:32:47.957Z,63.60
2022-10-24T19:35:21.532Z,63.20
2022-10-24T19:37:54.879Z,63.40
2022-10-24T19:40:28.228Z,63.40
2022-10-24T19:43:01.586Z,63.40
2022-10-24T19:45:39.520Z,63.60
2022-10-24T19:48:15.974Z,63.30
2022-10-24T19:50:49.331Z,63.60
2022-10-24T19:53:22.899Z,63.60
2022-10-24T19:55:56.185Z,63.70
2022-10-24T19:58:29.587Z,63.80
2022-10-24T20:01:09.404Z,63.90
2022-10-24T20:03:47.412Z,64.20
2022-10-24T20:06:21.038Z,64.20
2022-10-24T20:08:54.732Z,64.10
2022-10-24T20:11:28.043Z,64.20
2022-10-24T20:14:01.678Z,64.20
2022-10-24T20:16:36.427Z,64.30
2022-10-24T20:19:09.793Z,64.40
2022-10-24T20:21:43.175Z,64.60
2022-10-24T20:24:16.705Z,64.60
2022-10-24T20:26:50.259Z,64.90
2022-10-24T20:29:23.640Z,64.90
2022-10-24T20:32:01.645Z,65.00
2022-10-24T20:34:35.990Z,65.60
2022-10-24T20:37:09.295Z,65.50
2022-10-24T20:39:43.297Z,65.80
2022-10-24T20:42:17.867Z,65.90
2022-10-24T20:44:51.435Z,66.10
2022-10-24T20:47:26.587Z,66.10
2022-10-24T20:49:59.964Z,66.10
2022-10-24T20:52:33.216Z,66.10
2022-10-24T20:55:14.825Z,66.20
2022-10-24T20:57:58.657Z,66.40
2022-10-24T21:00:34.025Z,66.20
2022-10-24T21:03:12.170Z,66.40
2022-10-24T21:05:46.938Z,66.30
2022-10-24T21:08:20.237Z,66.10
2022-10-24T21:10:53.485Z,66.10
2022-10-24T21:13:27.037Z,66.60
2022-10-24T21:16:02.281Z,65.90
2022-10-24T21:18:37.606Z,65.80
2022-10-24T21:21:14.105Z,65.90
2022-10-24T21:23:52.059Z,66.00
2022-10-24T21:26:26.170Z,66.10
2022-10-24T21:29:08.952Z,65.90
2022-10-24T21:31:49.236Z,65.80
2022-10-24T21:34:25.839Z,65.80
2022-10-24T21:37:01.162Z,65.90
2022-10-24T21:39:34.388Z,65.90
2022-10-24T21:42:07.752Z,66.00
2022-10-24T21:44:42.201Z,66.00
2022-10-24T21:47:15.432Z,66.00
2022-10-24T21:49:50.113Z,66.10
2022-10-24T21:52:23.862Z,66.20
2022-10-24T21:54:57.139Z,66.40
2022-10-24T21:57:30.994Z,66.30
2022-10-24T22:00:05.413Z,66.20
2022-10-24T22:02:38.796Z,66.30
2022-10-24T22:05:13.498Z,66.40
2022-10-24T22:07:49.536Z,66.40
2022-10-24T22:10:23.134Z,66.50
2022-10-24T22:12:56.433Z,66.50
2022-10-24T22:15:29.729Z,66.50
2022-10-24T22:18:03.044Z,67.30
2022-10-24T22:20:37.887Z,66.70
2022-10-24T22:23:12.011Z,66.90
2022-10-24T22:25:45.981Z,66.90
2022-10-24T22:28:19.653Z,67.00
2022-10-24T22:30:53.824Z,67.10
2022-10-24T22:33:35.943Z,67.30
2022-10-24T22:36:22.314Z,67.50
2022-10-24T22:38:57.969Z,67.60
2022-10-24T22:41:32.266Z,67.40
2022-10-24T22:44:06.480Z,67.50
2022-10-24T22:47:27.702Z,67.60
2022-10-24T22:50:21.720Z,67.90
2022-10-24T22:52:58.013Z,67.70
2022-10-24T22:55:36.478Z,67.70
2022-10-24T22:58:10.408Z,67.70
2022-10-24T23:00:44.519Z,67.70
2022-10-24T23:03:38.546Z,67.60
2022-10-24T23:06:18.884Z,67.80
2022-10-24T23:08:53.720Z,67.70
2022-10-24T23:11:28.486Z,67.60
2022-10-24T23:14:03.190Z,67.70
2022-10-24T23:16:43.705Z,67.80
2022-10-24T23:19:22.826Z,67.80
2022-10-24T23:22:00.264Z,67.80
2022-10-24T23:24:37.093Z,67.80
2022-10-24T23:27:32.882Z,67.90
2022-10-24T23:30:16.465Z,68.00
2022-10-24T23:32:52.600Z,67.80
2022-10-24T23:35:26.873Z,67.70
2022-10-24T23:38:00.837Z,68.40
2022-10-24T23:40:38.665Z,67.80
2022-10-24T23:43:19.768Z,67.80
2022-10-24T23:46:01.079Z,67.70
2022-10-24T23:48:53.298Z,67.90
2022-10-24T23:51:34.386Z,68.00
2022-10-24T23:54:12.582Z,67.80
2022-10-24T23:56:48.367Z,68.40
2022-10-24T23:59:21.882Z,67.70
